Terminal Aerodrome Forecast
Issued by NWS Paducah, KY

Home | Current Version | Previous Version | Text Only | Print | Product List | Glossary On
Versions: 1 2 3 4 5 6 7 8 9 10 11 12 13 14 15 16 17 18 19 20 21
000
FTUS43 KPAH 201739
TAFEVV
TAF
KEVV 201739Z 2018/2118 21011KT P6SM BKN060
     FM202100 19008KT P6SM BKN015
     FM210500 18006KT 6SM BR OVC008
     FM211500 18009KT 4SM BR BKN004=

USA.gov is the U.S. government's official web portal to all federal, state and local government web resources and services.